sensor_id;sensor_type;location;lat;lon;timestamp;pressure;altitude;pressure_sealevel;temperature;humidity
39209;BME280;24929;51.982;4.664;2023-01-24T00:00:56;79552.97;;;-143.36;43.80
39209;BME280;24929;51.982;4.664;2023-01-24T00:03:21;79528.84;;;-143.36;44.05
39209;BME280;24929;51.982;4.664;2023-01-24T00:05:48;79550.94;;;-143.36;44.44
39209;BME280;24929;51.982;4.664;2023-01-24T00:08:15;79526.84;;;-143.36;44.02
39209;BME280;24929;51.982;4.664;2023-01-24T00:10:43;79571.03;;;-143.36;44.62
39209;BME280;24929;51.982;4.664;2023-01-24T00:13:13;79575.03;;;-143.36;44.40
39209;BME280;24929;51.982;4.664;2023-01-24T00:15:38;79683.50;;;-143.36;45.21
39209;BME280;24929;51.982;4.664;2023-01-24T00:18:04;79749.78;;;-143.36;46.07
39209;BME280;24929;51.982;4.664;2023-01-24T00:20:29;79611.19;;;-143.36;44.99
39209;BME280;24929;51.982;4.664;2023-01-24T00:22:55;79569.03;;;-143.36;44.14
39209;BME280;24929;51.982;4.664;2023-01-24T00:25:21;79609.19;;;-143.36;45.04
39209;BME280;24929;51.982;4.664;2023-01-24T00:27:46;79633.28;;;-143.36;44.66
39209;BME280;24929;51.982;4.664;2023-01-24T00:30:12;79603.16;;;-143.36;44.85
39209;BME280;24929;51.982;4.664;2023-01-24T00:32:37;79601.16;;;-143.36;44.58
39209;BME280;24929;51.982;4.664;2023-01-24T00:35:03;79751.78;;;-143.36;46.57
39209;BME280;24929;51.982;4.664;2023-01-24T00:37:29;79719.66;;;-143.36;45.76
39209;BME280;24929;51.982;4.664;2023-01-24T00:39:54;79623.25;;;-143.36;44.71
39209;BME280;24929;51.982;4.664;2023-01-24T00:42:19;79663.41;;;-143.36;44.83
39209;BME280;24929;51.982;4.664;2023-01-24T00:44:45;79544.94;;;-143.36;43.91
39209;BME280;24929;51.982;4.664;2023-01-24T00:47:10;79597.13;;;-143.36;44.40
39209;BME280;24929;51.982;4.664;2023-01-24T00:49:36;79583.09;;;-143.36;43.99
39209;BME280;24929;51.982;4.664;2023-01-24T00:52:01;79681.50;;;-143.36;45.24
39209;BME280;24929;51.982;4.664;2023-01-24T00:54:27;79643.31;;;-143.36;44.84
39209;BME280;24929;51.982;4.664;2023-01-24T00:56:52;79645.34;;;-143.36;45.35
39209;BME280;24929;51.982;4.664;2023-01-24T00:59:18;79593.13;;;-143.36;44.11
39209;BME280;24929;51.982;4.664;2023-01-24T01:01:43;79657.38;;;-143.36;44.80
39209;BME280;24929;51.982;4.664;2023-01-24T01:04:09;79615.22;;;-143.36;44.20
39209;BME280;24929;51.982;4.664;2023-01-24T01:06:35;79689.53;;;-143.36;45.05
39209;BME280;24929;51.982;4.664;2023-01-24T01:09:00;79631.28;;;-143.36;44.49
39209;BME280;24929;51.982;4.664;2023-01-24T01:11:26;79599.16;;;-143.36;44.31
39209;BME280;24929;51.982;4.664;2023-01-24T01:13:56;79524.84;;;-143.36;44.01
39209;BME280;24929;51.982;4.664;2023-01-24T01:16:23;79556.97;;;-143.36;43.97
39209;BME280;24929;51.982;4.664;2023-01-24T01:18:50;79581.06;;;-143.36;44.63
39209;BME280;24929;51.982;4.664;2023-01-24T01:21:19;79508.78;;;-143.36;43.93
39209;BME280;24929;51.982;4.664;2023-01-24T01:23:45;79603.16;;;-143.36;44.49
39209;BME280;24929;51.982;4.664;2023-01-24T01:26:15;79577.06;;;-143.36;44.17
39209;BME280;24929;51.982;4.664;2023-01-24T01:28:41;79625.25;;;-143.36;44.23
39209;BME280;24929;51.982;4.664;2023-01-24T01:31:06;79567.00;;;-143.36;43.70
39209;BME280;24929;51.982;4.664;2023-01-24T01:33:31;79550.94;;;-143.36;43.78
39209;BME280;24929;51.982;4.664;2023-01-24T01:35:57;79548.94;;;-143.36;43.55
39209;BME280;24929;51.982;4.664;2023-01-24T01:38:22;79524.84;;;-143.36;43.73
39209;BME280;24929;51.982;4.664;2023-01-24T01:40:50;79591.13;;;-143.36;43.90
39209;BME280;24929;51.982;4.664;2023-01-24T01:43:20;79577.06;;;-143.36;44.60
39209;BME280;24929;51.982;4.664;2023-01-24T01:45:48;79571.03;;;-143.36;44.63
39209;BME280;24929;51.982;4.664;2023-01-24T01:50:42;79581.06;;;-143.36;44.79
39209;BME280;24929;51.982;4.664;2023-01-24T01:53:09;79587.09;;;-143.36;44.66
39209;BME280;24929;51.982;4.664;2023-01-24T01:55:37;79550.94;;;-143.36;44.45
39209;BME280;24929;51.982;4.664;2023-01-24T01:58:04;79703.56;;;-143.36;45.74
39209;BME280;24929;51.982;4.664;2023-01-24T02:00:29;79741.75;;;-143.36;46.14
39209;BME280;24929;51.982;4.664;2023-01-24T02:03:09;79587.09;;;-143.36;44.78
39209;BME280;24929;51.982;4.664;2023-01-24T02:05:56;79619.22;;;-143.36;44.98
39209;BME280;24929;51.982;4.664;2023-01-24T02:08:22;79679.47;;;-143.36;45.39
39209;BME280;24929;51.982;4.664;2023-01-24T02:10:49;79613.22;;;-143.36;44.84
39209;BME280;24929;51.982;4.664;2023-01-24T02:13:35;79571.03;;;-143.36;44.40
39209;BME280;24929;51.982;4.664;2023-01-24T02:16:01;79645.34;;;-143.36;44.59
39209;BME280;24929;51.982;4.664;2023-01-24T02:18:30;79667.44;;;-143.36;45.70
39209;BME280;24929;51.982;4.664;2023-01-24T02:20:56;79661.41;;;-143.36;45.13
39209;BME280;24929;51.982;4.664;2023-01-24T02:23:51;79567.00;;;-143.36;44.24
39209;BME280;24929;51.982;4.664;2023-01-24T02:26:26;79743.75;;;-143.36;45.68
39209;BME280;24929;51.982;4.664;2023-01-24T02:31:27;79681.50;;;-143.36;44.94
39209;BME280;24929;51.982;4.664;2023-01-24T02:33:53;79621.25;;;-143.36;44.21
39209;BME280;24929;51.982;4.664;2023-01-24T02:38:59;79490.69;;;-143.36;43.77
39209;BME280;24929;51.982;4.664;2023-01-24T02:41:32;79528.84;;;-143.36;44.15
39209;BME280;24929;51.982;4.664;2023-01-24T02:44:05;79496.72;;;-143.36;43.54
39209;BME280;24929;51.982;4.664;2023-01-24T02:46:37;79524.84;;;-143.36;43.68
39209;BME280;24929;51.982;4.664;2023-01-24T02:49:08;79671.44;;;-143.36;45.21
39209;BME280;24929;51.982;4.664;2023-01-24T02:51:33;79719.66;;;-143.36;45.16
39209;BME280;24929;51.982;4.664;2023-01-24T02:54:17;79707.59;;;-143.36;45.42
39209;BME280;24929;51.982;4.664;2023-01-24T02:56:42;79637.31;;;-143.36;44.48
39209;BME280;24929;51.982;4.664;2023-01-24T02:59:26;79717.63;;;-143.36;45.25
39209;BME280;24929;51.982;4.664;2023-01-24T03:01:52;79727.69;;;-143.36;45.64
39209;BME280;24929;51.982;4.664;2023-01-24T03:04:17;79753.78;;;-143.36;46.07
39209;BME280;24929;51.982;4.664;2023-01-24T03:06:43;79647.34;;;-143.36;45.02
39209;BME280;24929;51.982;4.664;2023-01-24T03:09:08;79683.50;;;-143.36;45.11
39209;BME280;24929;51.982;4.664;2023-01-24T03:11:45;79597.13;;;-143.36;44.71
39209;BME280;24929;51.982;4.664;2023-01-24T03:14:11;79651.38;;;-143.36;44.88
39209;BME280;24929;51.982;4.664;2023-01-24T03:16:55;79552.97;;;-143.36;44.29
39209;BME280;24929;51.982;4.664;2023-01-24T03:19:39;79649.34;;;-143.36;44.95
39209;BME280;24929;51.982;4.664;2023-01-24T03:22:23;79561.00;;;-143.36;43.86
39209;BME280;24929;51.982;4.664;2023-01-24T03:25:07;79581.06;;;-143.36;44.24
39209;BME280;24929;51.982;4.664;2023-01-24T03:27:51;79573.03;;;-143.36;44.19
39209;BME280;24929;51.982;4.664;2023-01-24T03:30:35;79585.09;;;-143.36;44.07
39209;BME280;24929;51.982;4.664;2023-01-24T03:33:18;79691.53;;;-143.36;45.42
39209;BME280;24929;51.982;4.664;2023-01-24T03:36:03;79727.69;;;-143.36;45.72
39209;BME280;24929;51.982;4.664;2023-01-24T03:38:31;79671.44;;;-143.36;45.19
39209;BME280;24929;51.982;4.664;2023-01-24T03:41:16;79623.25;;;-143.36;44.77
39209;BME280;24929;51.982;4.664;2023-01-24T03:43:41;79621.25;;;-143.36;44.55
39209;BME280;24929;51.982;4.664;2023-01-24T03:46:08;79653.38;;;-143.36;45.15
39209;BME280;24929;51.982;4.664;2023-01-24T03:48:33;79639.31;;;-143.36;44.66
39209;BME280;24929;51.982;4.664;2023-01-24T03:51:03;79661.41;;;-143.36;45.10
39209;BME280;24929;51.982;4.664;2023-01-24T03:53:47;79753.78;;;-143.36;46.24
39209;BME280;24929;51.982;4.664;2023-01-24T03:56:13;79755.78;;;-143.36;45.84
39209;BME280;24929;51.982;4.664;2023-01-24T03:58:38;79691.53;;;-143.36;45.28
39209;BME280;24929;51.982;4.664;2023-01-24T04:01:04;79639.31;;;-143.36;44.86
39209;BME280;24929;51.982;4.664;2023-01-24T04:03:29;79679.47;;;-143.36;44.81
39209;BME280;24929;51.982;4.664;2023-01-24T04:05:57;79599.16;;;-143.36;44.23
39209;BME280;24929;51.982;4.664;2023-01-24T04:08:23;79665.41;;;-143.36;44.59
39209;BME280;24929;51.982;4.664;2023-01-24T04:10:48;79611.19;;;-143.36;44.23
39209;BME280;24929;51.982;4.664;2023-01-24T04:13:14;79751.78;;;-143.36;45.59
39209;BME280;24929;51.982;4.664;2023-01-24T04:15:39;79687.50;;;-143.36;45.30
39209;BME280;24929;51.982;4.664;2023-01-24T04:18:05;79637.31;;;-143.36;44.73
39209;BME280;24929;51.982;4.664;2023-01-24T04:20:34;79655.38;;;-143.36;45.58
39209;BME280;24929;51.982;4.664;2023-01-24T04:23:01;79769.84;;;-143.36;46.53
39209;BME280;24929;51.982;4.664;2023-01-24T04:25:26;79713.63;;;-143.36;45.59
39209;BME280;24929;51.982;4.664;2023-01-24T04:27:52;79593.13;;;-143.36;44.26
39209;BME280;24929;51.982;4.664;2023-01-24T04:30:17;79609.19;;;-143.36;43.70
39209;BME280;24929;51.982;4.664;2023-01-24T04:32:43;79563.00;;;-143.36;44.02
39209;BME280;24929;51.982;4.664;2023-01-24T04:35:15;79671.44;;;-143.36;45.27
39209;BME280;24929;51.982;4.664;2023-01-24T04:37:41;79757.81;;;-143.36;45.78
39209;BME280;24929;51.982;4.664;2023-01-24T04:40:07;79663.41;;;-143.36;44.86
39209;BME280;24929;51.982;4.664;2023-01-24T04:42:33;79739.72;;;-143.36;45.13
39209;BME280;24929;51.982;4.664;2023-01-24T04:44:58;79675.47;;;-143.36;44.75
39209;BME280;24929;51.982;4.664;2023-01-24T04:47:23;79673.44;;;-143.36;45.13
39209;BME280;24929;51.982;4.664;2023-01-24T04:49:49;79729.69;;;-143.36;45.68
39209;BME280;24929;51.982;4.664;2023-01-24T04:52:14;79703.56;;;-143.36;44.85
39209;BME280;24929;51.982;4.664;2023-01-24T04:54:40;79665.41;;;-143.36;44.86
39209;BME280;24929;51.982;4.664;2023-01-24T04:57:06;79667.44;;;-143.36;44.62
39209;BME280;24929;51.982;4.664;2023-01-24T04:59:31;79785.91;;;-143.36;45.84
39209;BME280;24929;51.982;4.664;2023-01-24T05:01:56;79725.66;;;-143.36;45.30
39209;BME280;24929;51.982;4.664;2023-01-24T05:04:22;79715.63;;;-143.36;45.22
39209;BME280;24929;51.982;4.664;2023-01-24T05:06:47;79737.72;;;-143.36;44.93
39209;BME280;24929;51.982;4.664;2023-01-24T05:09:13;79697.56;;;-143.36;44.78
39209;BME280;24929;51.982;4.664;2023-01-24T05:11:38;79695.53;;;-143.36;44.94
39209;BME280;24929;51.982;4.664;2023-01-24T05:14:03;79645.34;;;-143.36;44.50
39209;BME280;24929;51.982;4.664;2023-01-24T05:16:29;79687.50;;;-143.36;44.70
39209;BME280;24929;51.982;4.664;2023-01-24T05:18:54;79607.19;;;-143.36;44.01
39209;BME280;24929;51.982;4.664;2023-01-24T05:21:20;79575.03;;;-143.36;43.33
39209;BME280;24929;51.982;4.664;2023-01-24T05:23:50;79524.84;;;-143.36;43.28
39209;BME280;24929;51.982;4.664;2023-01-24T05:26:17;79569.03;;;-143.36;43.61
39209;BME280;24929;51.982;4.664;2023-01-24T05:28:42;79687.50;;;-143.36;44.52
39209;BME280;24929;51.982;4.664;2023-01-24T05:31:07;79701.56;;;-143.36;44.82
39209;BME280;24929;51.982;4.664;2023-01-24T05:33:34;79629.28;;;-143.36;44.18
39209;BME280;24929;51.982;4.664;2023-01-24T05:36:05;79595.13;;;-143.36;43.62
39209;BME280;24929;51.982;4.664;2023-01-24T05:38:31;79727.69;;;-143.36;44.99
39209;BME280;24929;51.982;4.664;2023-01-24T05:41:01;79653.38;;;-143.36;45.17
39209;BME280;24929;51.982;4.664;2023-01-24T05:43:27;79739.72;;;-143.36;45.88
39209;BME280;24929;51.982;4.664;2023-01-24T05:46:00;79581.06;;;-143.36;44.31
39209;BME280;24929;51.982;4.664;2023-01-24T05:48:25;79609.19;;;-143.36;44.37
39209;BME280;24929;51.982;4.664;2023-01-24T05:51:03;79641.31;;;-143.36;44.64
39209;BME280;24929;51.982;4.664;2023-01-24T05:53:30;79689.53;;;-143.36;45.02
39209;BME280;24929;51.982;4.664;2023-01-24T05:55:57;79683.50;;;-143.36;45.42
39209;BME280;24929;51.982;4.664;2023-01-24T05:58:24;79725.66;;;-143.36;46.15
39209;BME280;24929;51.982;4.664;2023-01-24T06:00:50;79709.59;;;-143.36;45.34
39209;BME280;24929;51.982;4.664;2023-01-24T06:03:16;79737.72;;;-143.36;45.66
39209;BME280;24929;51.982;4.664;2023-01-24T06:05:45;79671.44;;;-143.36;45.39
39209;BME280;24929;51.982;4.664;2023-01-24T06:08:11;79699.56;;;-143.36;44.91
39209;BME280;24929;51.982;4.664;2023-01-24T06:10:36;79663.41;;;-143.36;44.71
39209;BME280;24929;51.982;4.664;2023-01-24T06:13:02;79767.84;;;-143.36;46.40
39209;BME280;24929;51.982;4.664;2023-01-24T06:15:28;79673.44;;;-143.36;45.29
39209;BME280;24929;51.982;4.664;2023-01-24T06:21:22;79599.16;;;-143.36;44.23
39209;BME280;24929;51.982;4.664;2023-01-24T06:23:51;79677.47;;;-143.36;44.90
39209;BME280;24929;51.982;4.664;2023-01-24T06:26:16;79681.50;;;-143.36;45.02
39209;BME280;24929;51.982;4.664;2023-01-24T06:28:42;79689.53;;;-143.36;45.02
39209;BME280;24929;51.982;4.664;2023-01-24T06:31:29;79755.78;;;-143.36;45.78
39209;BME280;24929;51.982;4.664;2023-01-24T06:37:03;79739.72;;;-143.36;45.63
39209;BME280;24929;51.982;4.664;2023-01-24T06:39:19;79679.47;;;-143.36;44.59
39209;BME280;24929;51.982;4.664;2023-01-24T06:41:47;79695.53;;;-143.36;44.44
39209;BME280;24929;51.982;4.664;2023-01-24T06:44:12;79864.25;;;-143.36;46.64
39209;BME280;24929;51.982;4.664;2023-01-24T06:46:38;79759.81;;;-143.36;45.10
39209;BME280;24929;51.982;4.664;2023-01-24T06:49:03;79687.50;;;-143.36;44.37
39209;BME280;24929;51.982;4.664;2023-01-24T06:51:28;79681.50;;;-143.36;44.51
39209;BME280;24929;51.982;4.664;2023-01-24T06:53:54;79671.44;;;-143.36;44.29
39209;BME280;24929;51.982;4.664;2023-01-24T06:56:19;79691.53;;;-143.36;44.41
39209;BME280;24929;51.982;4.664;2023-01-24T07:02:41;79589.09;;;-143.36;43.86
39209;BME280;24929;51.982;4.664;2023-01-24T07:05:06;79635.28;;;-143.36;44.08
39209;BME280;24929;51.982;4.664;2023-01-24T07:07:32;79765.84;;;-143.36;45.08
39209;BME280;24929;51.982;4.664;2023-01-24T07:09:57;79677.47;;;-143.36;44.42
39209;BME280;24929;51.982;4.664;2023-01-24T07:12:22;79711.63;;;-143.36;44.75
39209;BME280;24929;51.982;4.664;2023-01-24T07:14:48;79814.03;;;-143.36;45.93
39209;BME280;24929;51.982;4.664;2023-01-24T07:17:13;79808.00;;;-143.36;46.52
39209;BME280;24929;51.982;4.664;2023-01-24T07:19:39;79695.53;;;-143.36;44.73
39209;BME280;24929;51.982;4.664;2023-01-24T07:22:08;79667.44;;;-143.36;44.20
39209;BME280;24929;51.982;4.664;2023-01-24T07:24:35;79759.81;;;-143.36;45.68
39209;BME280;24929;51.982;4.664;2023-01-24T07:27:00;79721.66;;;-143.36;45.17
39209;BME280;24929;51.982;4.664;2023-01-24T07:29:26;79745.75;;;-143.36;45.20
39209;BME280;24929;51.982;4.664;2023-01-24T07:31:52;79745.75;;;-143.36;45.02
39209;BME280;24929;51.982;4.664;2023-01-24T07:34:18;79767.84;;;-143.36;45.25
39209;BME280;24929;51.982;4.664;2023-01-24T07:36:44;79711.63;;;-143.36;44.89
39209;BME280;24929;51.982;4.664;2023-01-24T07:39:10;79787.94;;;-143.36;45.05
39209;BME280;24929;51.982;4.664;2023-01-24T07:41:36;79818.06;;;-143.36;46.29
39209;BME280;24929;51.982;4.664;2023-01-24T07:44:02;79677.47;;;-143.36;44.09
39209;BME280;24929;51.982;4.664;2023-01-24T07:46:34;79663.41;;;-143.36;44.64
39209;BME280;24929;51.982;4.664;2023-01-24T07:49:00;79717.63;;;-143.36;44.48
39209;BME280;24929;51.982;4.664;2023-01-24T07:51:26;79767.84;;;-143.36;45.58
39209;BME280;24929;51.982;4.664;2023-01-24T07:53:52;79693.53;;;-143.36;44.29
39209;BME280;24929;51.982;4.664;2023-01-24T07:56:18;79705.59;;;-143.36;44.62
39209;BME280;24929;51.982;4.664;2023-01-24T07:58:43;79874.28;;;-143.36;45.90
39209;BME280;24929;51.982;4.664;2023-01-24T08:01:09;79904.41;;;-143.36;47.20
39209;BME280;24929;51.982;4.664;2023-01-24T08:03:34;79892.38;;;-143.36;46.08
39209;BME280;24929;51.982;4.664;2023-01-24T08:06:00;79856.22;;;-143.36;46.31
39209;BME280;24929;51.982;4.664;2023-01-24T08:08:28;79777.88;;;-143.36;45.36
39209;BME280;24929;51.982;4.664;2023-01-24T08:10:53;79729.69;;;-143.36;45.16
39209;BME280;24929;51.982;4.664;2023-01-24T08:16:36;79739.72;;;-143.36;44.65
39209;BME280;24929;51.982;4.664;2023-01-24T08:19:02;79797.97;;;-143.36;45.53
39209;BME280;24929;51.982;4.664;2023-01-24T08:21:27;79830.09;;;-143.36;45.52
39209;BME280;24929;51.982;4.664;2023-01-24T08:23:52;79836.13;;;-143.36;45.91
39209;BME280;24929;51.982;4.664;2023-01-24T08:26:18;79852.19;;;-143.36;46.21
39209;BME280;24929;51.982;4.664;2023-01-24T08:28:43;79836.13;;;-143.36;46.05
39209;BME280;24929;51.982;4.664;2023-01-24T08:31:09;79777.88;;;-143.36;45.51
39209;BME280;24929;51.982;4.664;2023-01-24T08:33:34;79916.47;;;-143.36;46.84
39209;BME280;24929;51.982;4.664;2023-01-24T08:36:03;79832.09;;;-143.36;45.93
39209;BME280;24929;51.982;4.664;2023-01-24T08:38:28;79836.13;;;-143.36;46.28
39209;BME280;24929;51.982;4.664;2023-01-24T08:40:53;79745.75;;;-143.36;45.15
39209;BME280;24929;51.982;4.664;2023-01-24T08:43:19;79741.75;;;-143.36;44.68
39209;BME280;24929;51.982;4.664;2023-01-24T08:45:48;79691.53;;;-143.36;45.11
39209;BME280;24929;51.982;4.664;2023-01-24T08:48:13;79729.69;;;-143.36;44.84
39209;BME280;24929;51.982;4.664;2023-01-24T08:50:39;79701.56;;;-143.36;44.08
39209;BME280;24929;51.982;4.664;2023-01-24T08:53:04;79737.72;;;-143.36;44.57
39209;BME280;24929;51.982;4.664;2023-01-24T08:55:29;79753.78;;;-143.36;44.59
39209;BME280;24929;51.982;4.664;2023-01-24T08:58:02;79693.53;;;-143.36;44.52
39209;BME280;24929;51.982;4.664;2023-01-24T09:00:28;79757.81;;;-143.36;44.72
39209;BME280;24929;51.982;4.664;2023-01-24T09:02:54;79719.66;;;-143.36;44.34
39209;BME280;24929;51.982;4.664;2023-01-24T09:05:19;79749.78;;;-143.36;44.42
39209;BME280;24929;51.982;4.664;2023-01-24T09:07:46;79709.59;;;-143.36;44.20
39209;BME280;24929;51.982;4.664;2023-01-24T09:10:11;79769.84;;;-143.36;44.45
39209;BME280;24929;51.982;4.664;2023-01-24T09:12:37;79812.03;;;-143.36;45.04
39209;BME280;24929;51.982;4.664;2023-01-24T09:15:02;79787.94;;;-143.36;45.09
39209;BME280;24929;51.982;4.664;2023-01-24T09:17:29;79942.56;;;-143.36;47.04
39209;BME280;24929;51.982;4.664;2023-01-24T09:19:54;79888.34;;;-143.36;46.54
39209;BME280;24929;51.982;4.664;2023-01-24T09:22:20;79874.28;;;-143.36;46.13
39209;BME280;24929;51.982;4.664;2023-01-24T09:24:45;79878.31;;;-143.36;46.55
39209;BME280;24929;51.982;4.664;2023-01-24T09:27:11;79896.38;;;-143.36;46.71
39209;BME280;24929;51.982;4.664;2023-01-24T09:29:37;79872.28;;;-143.36;46.10
39209;BME280;24929;51.982;4.664;2023-01-24T09:32:02;79886.34;;;-143.36;45.95
39209;BME280;24929;51.982;4.664;2023-01-24T09:34:28;79836.13;;;-143.36;46.05
39209;BME280;24929;51.982;4.664;2023-01-24T09:37:08;79753.78;;;-143.36;45.30
39209;BME280;24929;51.982;4.664;2023-01-24T09:39:34;79789.94;;;-143.36;45.49
39209;BME280;24929;51.982;4.664;2023-01-24T09:44:47;79801.97;;;-143.36;45.87
39209;BME280;24929;51.982;4.664;2023-01-24T09:47:22;79725.66;;;-143.36;44.86
39209;BME280;24929;51.982;4.664;2023-01-24T09:49:54;79697.56;;;-143.36;44.84
39209;BME280;24929;51.982;4.664;2023-01-24T09:52:27;79789.94;;;-143.36;45.35
39209;BME280;24929;51.982;4.664;2023-01-24T10:00:17;79769.84;;;-143.36;45.17
39209;BME280;24929;51.982;4.664;2023-01-24T10:02:46;79739.72;;;-143.36;44.12
39209;BME280;24929;51.982;4.664;2023-01-24T10:05:16;79709.59;;;-143.36;44.15
39209;BME280;24929;51.982;4.664;2023-01-24T10:15:42;79661.41;;;-143.36;44.02
39209;BME280;24929;51.982;4.664;2023-01-24T10:23:43;79703.56;;;-143.36;44.48
39209;BME280;24929;51.982;4.664;2023-01-24T10:26:19;79665.41;;;-143.36;nan
39209;BME280;24929;51.982;4.664;2023-01-24T10:28:53;79661.41;;;-143.36;nan
39209;BME280;24929;51.982;4.664;2023-01-24T10:31:24;79751.78;;;-143.36;nan
39209;BME280;24929;51.982;4.664;2023-01-24T10:34:12;79681.50;;;-143.36;nan
39209;BME280;24929;51.982;4.664;2023-01-24T10:36:56;79609.19;;;-143.36;nan
39209;BME280;24929;51.982;4.664;2023-01-24T10:39:24;79707.59;;;-143.36;nan
39209;BME280;24929;51.982;4.664;2023-01-24T10:41:51;79659.41;;;-143.36;nan
39209;BME280;24929;51.982;4.664;2023-01-24T10:44:29;79755.78;;;-143.36;nan
39209;BME280;24929;51.982;4.664;2023-01-24T10:49:53;79607.19;;;-143.36;nan
39209;BME280;24929;51.982;4.664;2023-01-24T10:52:22;79691.53;;;-143.36;nan
39209;BME280;24929;51.982;4.664;2023-01-24T10:54:59;79659.41;;;-143.36;nan
39209;BME280;24929;51.982;4.664;2023-01-24T10:57:36;79639.31;;;-143.36;nan
39209;BME280;24929;51.982;4.664;2023-01-24T11:02:57;79763.81;;;-143.36;nan
39209;BME280;24929;51.982;4.664;2023-01-24T11:05:24;79723.66;;;-143.36;nan
39209;BME280;24929;51.982;4.664;2023-01-24T11:07:58;79625.25;;;-143.36;nan
39209;BME280;24929;51.982;4.664;2023-01-24T11:10:27;79613.22;;;-143.36;nan
39209;BME280;24929;51.982;4.664;2023-01-24T11:12:57;79561.00;;;-143.36;nan
39209;BME280;24929;51.982;4.664;2023-01-24T11:15:30;79617.22;;;-143.36;nan
39209;BME280;24929;51.982;4.664;2023-01-24T11:18:20;79653.38;;;-143.36;nan
39209;BME280;24929;51.982;4.664;2023-01-24T11:20:46;79661.41;;;-143.36;nan
39209;BME280;24929;51.982;4.664;2023-01-24T11:23:28;79653.38;;;-143.36;nan
39209;BME280;24929;51.982;4.664;2023-01-24T11:26:04;79563.00;;;-143.36;nan
39209;BME280;24929;51.982;4.664;2023-01-24T11:28:33;79703.56;;;-143.36;nan
39209;BME280;24929;51.982;4.664;2023-01-24T11:31:01;79711.63;;;-143.36;nan
39209;BME280;24929;51.982;4.664;2023-01-24T11:39:26;79691.53;;;-143.36;nan
39209;BME280;24929;51.982;4.664;2023-01-24T11:42:05;79653.38;;;-143.36;nan
39209;BME280;24929;51.982;4.664;2023-01-24T11:47:20;79625.25;;;-143.36;nan
39209;BME280;24929;51.982;4.664;2023-01-24T11:50:10;79575.03;;;-143.36;nan
39209;BME280;24929;51.982;4.664;2023-01-24T11:52:52;79552.97;;;-143.36;nan
39209;BME280;24929;51.982;4.664;2023-01-24T12:00:45;79589.09;;;-143.36;nan
39209;BME280;24929;51.982;4.664;2023-01-24T12:06:08;79482.66;;;-143.36;nan
39209;BME280;24929;51.982;4.664;2023-01-24T12:09:02;79544.94;;;-143.36;nan
39209;BME280;24929;51.982;4.664;2023-01-24T12:17:06;79512.78;;;-143.36;nan
39209;BME280;24929;51.982;4.664;2023-01-24T12:22:22;79462.59;;;-143.36;nan
39209;BME280;24929;51.982;4.664;2023-01-24T12:24:56;79392.31;;;-143.36;nan
39209;BME280;24929;51.982;4.664;2023-01-24T12:27:26;79510.78;;;-143.36;nan
39209;BME280;24929;51.982;4.664;2023-01-24T12:30:19;79599.16;;;-143.36;nan
39209;BME280;24929;51.982;4.664;2023-01-24T12:33:14;79575.03;;;-143.36;nan
39209;BME280;24929;51.982;4.664;2023-01-24T12:35:45;79581.06;;;-143.36;nan
39209;BME280;24929;51.982;4.664;2023-01-24T12:38:35;79603.16;;;-143.36;nan
39209;BME280;24929;51.982;4.664;2023-01-24T12:49:59;79591.13;;;-143.36;nan
39209;BME280;24929;51.982;4.664;2023-01-24T12:55:04;79556.97;;;-143.36;nan
39209;BME280;24929;51.982;4.664;2023-01-24T12:57:44;79528.84;;;-143.36;nan
39209;BME280;24929;51.982;4.664;2023-01-24T13:00:34;79470.63;;;-143.36;nan
39209;BME280;24929;51.982;4.664;2023-01-24T13:06:01;79554.97;;;-143.36;nan
39209;BME280;24929;51.982;4.664;2023-01-24T13:08:42;79512.78;;;-143.36;nan
39209;BME280;24929;51.982;4.664;2023-01-24T13:11:24;79448.53;;;-143.36;nan
39209;BME280;24929;51.982;4.664;2023-01-24T13:14:11;79482.66;;;-143.36;nan
39209;BME280;24929;51.982;4.664;2023-01-24T13:19:26;79506.78;;;-143.36;nan
39209;BME280;24929;51.982;4.664;2023-01-24T13:22:30;79488.69;;;-143.36;nan
39209;BME280;24929;51.982;4.664;2023-01-24T13:33:12;79516.81;;;-143.36;nan
39209;BME280;24929;51.982;4.664;2023-01-24T13:35:46;79452.53;;;-143.36;nan
39209;BME280;24929;51.982;4.664;2023-01-24T13:38:24;79370.22;;;-143.36;nan
39209;BME280;24929;51.982;4.664;2023-01-24T13:41:04;79364.19;;;-143.36;nan
39209;BME280;24929;51.982;4.664;2023-01-24T13:46:02;79474.63;;;-143.36;nan
39209;BME280;24929;51.982;4.664;2023-01-24T13:54:05;79416.41;;;-143.36;nan
39209;BME280;24929;51.982;4.664;2023-01-24T13:59:35;79406.34;;;-143.36;nan
39209;BME280;24929;51.982;4.664;2023-01-24T14:02:02;79482.66;;;-143.36;nan
39209;BME280;24929;51.982;4.664;2023-01-24T14:04:41;79402.34;;;-143.36;nan
39209;BME280;24929;51.982;4.664;2023-01-24T14:07:18;79406.34;;;-143.36;nan
39209;BME280;24929;51.982;4.664;2023-01-24T14:09:45;79486.69;;;-143.36;nan
39209;BME280;24929;51.982;4.664;2023-01-24T14:12:17;79434.47;;;-143.36;nan
39209;BME280;24929;51.982;4.664;2023-01-24T14:15:01;79450.53;;;-143.36;nan
39209;BME280;24929;51.982;4.664;2023-01-24T14:17:43;79490.69;;;-143.36;nan
39209;BME280;24929;51.982;4.664;2023-01-24T14:20:33;79502.75;;;-143.36;nan
39209;BME280;24929;51.982;4.664;2023-01-24T14:23:03;79510.78;;;-143.36;nan
39209;BME280;24929;51.982;4.664;2023-01-24T14:25:39;79494.72;;;-143.36;nan
39209;BME280;24929;51.982;4.664;2023-01-24T14:31:36;79468.59;;;-143.36;nan
39209;BME280;24929;51.982;4.664;2023-01-24T14:34:13;79508.78;;;-143.36;nan
39209;BME280;24929;51.982;4.664;2023-01-24T14:36:42;79522.84;;;-143.36;nan
39209;BME280;24929;51.982;4.664;2023-01-24T14:41:36;79569.03;;;-143.36;nan
39209;BME280;24929;51.982;4.664;2023-01-24T14:44:04;79556.97;;;-143.36;nan
39209;BME280;24929;51.982;4.664;2023-01-24T14:46:40;79609.19;;;-143.36;nan
39209;BME280;24929;51.982;4.664;2023-01-24T14:49:13;79464.59;;;-143.36;nan
39209;BME280;24929;51.982;4.664;2023-01-24T14:51:43;79538.91;;;-143.36;nan
39209;BME280;24929;51.982;4.664;2023-01-24T14:54:22;79516.81;;;-143.36;nan